Time;durP1;ratioP1;P1;durP2;ratioP2;P2;SDS_P1;SDS_P2;PMS_P1;PMS_P2;Temp;Humidity;BMP_temperature;BMP_pressure;BME280_temperature;BME280_humidity;BME280_pressure;Samples;Min_cycle;Max_cycle;Signal;HPM_P1;HPM_P2
2022/05/24 00:00:46;;;;;;;;;;;;;;;;;;4973081;28;19972;-78
2022/05/24 00:03:11;;;;;;;;;;;;;;;;;;4955273;28;19928;-75
2022/05/24 00:05:37;;;;;;;;;;;;;;;;;;4972988;28;19922;-76
2022/05/24 00:08:03;;;;;;;;;;;;;;;;;;4955934;28;19957;-82
2022/05/24 00:10:29;;;;;;;;;;;;;;;;;;4940261;28;20477;-78
2022/05/24 00:12:55;;;;;;;;;;;;;;;;;;4955972;28;20336;-78
2022/05/24 00:15:27;;;;;;;;;;;;;;;;;;4956131;28;19922;-80
2022/05/24 00:17:53;;;;;;;;;;;;;;;;;;4956245;28;20446;-78
2022/05/24 00:20:19;;;;;;;;;;;;;;;;;;4972733;28;19922;-76
2022/05/24 00:22:45;;;;;;;;;;;;;;;;;;4977883;28;19944;-75
2022/05/24 00:25:11;;;;;;;;;;;;;;;;;;4977997;28;19929;-76
2022/05/24 00:27:37;;;;;;;;;;;;;;;;;;4977861;28;19926;-75
2022/05/24 00:30:03;;;;;;;;;;;;;;;;;;4977472;28;19932;-76
2022/05/24 00:32:29;;;;;;;;;;;;;;;;;;4978202;28;19922;-76
2022/05/24 00:34:54;;;;;;;;;;;;;;;;;;4977682;28;19922;-76
2022/05/24 00:37:20;;;;;;;;;;;;;;;;;;4977626;28;19921;-76
2022/05/24 00:39:47;;;;;;;;;;;;;;;;;;4977630;28;19977;-75
2022/05/24 00:42:13;;;;;;;;;;;;;;;;;;4977980;28;19922;-76
2022/05/24 00:44:39;;;;;;;;;;;;;;;;;;4977868;28;19977;-76
2022/05/24 00:47:05;;;;;;;;;;;;;;;;;;4977055;28;19926;-75
2022/05/24 00:49:31;;;;;;;;;;;;;;;;;;4977806;28;19929;-75
2022/05/24 00:51:57;;;;;;;;;;;;;;;;;;4977077;28;19933;-75
2022/05/24 00:54:23;;;;;;;;;;;;;;;;;;4960940;28;19929;-75
2022/05/24 00:56:49;;;;;;;;;;;;;;;;;;4977163;28;20281;-75
2022/05/24 00:59:15;;;;;;;;;;;;;;;;;;4960307;28;19926;-75
2022/05/24 01:01:41;;;;;;;;;;;;;;;;;;4975297;28;20489;-75
2022/05/24 01:04:07;;;;;;;;;;;;;;;;;;4974916;28;20054;-75
2022/05/24 01:06:33;;;;;;;;;;;;;;;;;;4975411;28;20369;-76
2022/05/24 01:08:58;;;;;;;;;;;;;;;;;;4957426;28;19926;-76
2022/05/24 01:11:24;;;;;;;;;;;;;;;;;;4975657;28;20317;-75
2022/05/24 01:13:50;;;;;;;;;;;;;;;;;;4974588;28;20033;-75
2022/05/24 01:16:16;;;;;;;;;;;;;;;;;;4975069;28;19926;-75
2022/05/24 01:18:43;;;;;;;;;;;;;;;;;;4959019;28;19922;-76
2022/05/24 01:21:08;;;;;;;;;;;;;;;;;;4958394;28;19922;-75
2022/05/24 01:23:36;;;;;;;;;;;;;;;;;;4976806;28;19965;-75
2022/05/24 01:26:02;;;;;;;;;;;;;;;;;;4976131;28;20021;-75
2022/05/24 01:28:28;;;;;;;;;;;;;;;;;;4975445;28;20365;-75
2022/05/24 01:30:54;;;;;;;;;;;;;;;;;;4975391;28;19922;-75
2022/05/24 01:36:10;;;;;;;;;;;;;;;;;;4975719;28;19922;-75
2022/05/24 01:38:36;;;;;;;;;;;;;;;;;;4975963;28;20023;-76
2022/05/24 01:41:02;;;;;;;;;;;;;;;;;;4958494;28;20003;-75
2022/05/24 01:43:28;;;;;;;;;;;;;;;;;;4975841;28;19922;-75
2022/05/24 01:45:55;;;;;;;;;;;;;;;;;;4975241;28;19922;-75
2022/05/24 01:48:21;;;;;;;;;;;;;;;;;;4976526;28;19922;-75
2022/05/24 01:50:47;;;;;;;;;;;;;;;;;;4974817;28;19929;-75
2022/05/24 01:53:13;;;;;;;;;;;;;;;;;;4975949;28;19921;-75
2022/05/24 01:55:39;;;;;;;;;;;;;;;;;;4975829;28;19922;-75
2022/05/24 01:58:05;;;;;;;;;;;;;;;;;;4975450;28;19949;-75
2022/05/24 02:00:31;;;;;;;;;;;;;;;;;;4958323;28;20358;-75
2022/05/24 02:02:57;;;;;;;;;;;;;;;;;;4975756;28;20439;-75
2022/05/24 02:05:23;;;;;;;;;;;;;;;;;;4975928;28;20385;-75
2022/05/24 02:07:49;;;;;;;;;;;;;;;;;;4975950;28;20282;-75
2022/05/24 02:10:15;;;;;;;;;;;;;;;;;;4974855;28;20346;-75
2022/05/24 02:12:41;;;;;;;;;;;;;;;;;;4976045;28;19922;-75
2022/05/24 02:15:07;;;;;;;;;;;;;;;;;;4975120;28;19926;-75
2022/05/24 02:17:33;;;;;;;;;;;;;;;;;;4975873;28;19928;-75
2022/05/24 02:19:59;;;;;;;;;;;;;;;;;;4974985;28;19922;-75
2022/05/24 02:22:25;;;;;;;;;;;;;;;;;;4957560;28;19929;-75
2022/05/24 02:24:51;;;;;;;;;;;;;;;;;;4974432;28;20021;-75
2022/05/24 02:27:17;;;;;;;;;;;;;;;;;;4972988;28;19926;-75
2022/05/24 02:29:42;;;;;;;;;;;;;;;;;;4974991;28;19922;-76
2022/05/24 02:32:08;;;;;;;;;;;;;;;;;;4973674;28;19928;-75
2022/05/24 02:34:34;;;;;;;;;;;;;;;;;;4975275;28;19929;-75
2022/05/24 02:37:01;;;;;;;;;;;;;;;;;;4974447;28;19922;-75
2022/05/24 02:39:26;;;;;;;;;;;;;;;;;;4975129;28;20403;-75
2022/05/24 02:41:52;;;;;;;;;;;;;;;;;;4957715;28;19922;-75
2022/05/24 02:44:18;;;;;;;;;;;;;;;;;;4973814;28;19922;-74
2022/05/24 02:46:44;;;;;;;;;;;;;;;;;;4974633;28;19922;-75
2022/05/24 02:49:10;;;;;;;;;;;;;;;;;;4974523;28;19922;-75
2022/05/24 02:51:37;;;;;;;;;;;;;;;;;;4974794;28;20091;-75
2022/05/24 02:54:03;;;;;;;;;;;;;;;;;;4957119;28;19962;-75
2022/05/24 02:56:29;;;;;;;;;;;;;;;;;;4974825;28;19922;-75
2022/05/24 02:58:55;;;;;;;;;;;;;;;;;;4957413;28;19929;-75
2022/05/24 03:01:21;;;;;;;;;;;;;;;;;;4957075;28;19926;-75
2022/05/24 03:03:47;;;;;;;;;;;;;;;;;;4974684;28;19926;-75
2022/05/24 03:06:13;;;;;;;;;;;;;;;;;;4956386;28;20001;-75
2022/05/24 03:11:24;;;;;;;;;;;;;;;;;;4972618;28;19945;-75
2022/05/24 03:16:34;;;;;;;;;;;;;;;;;;4972798;28;19985;-75
2022/05/24 03:19:00;;;;;;;;;;;;;;;;;;4974222;28;20353;-76
2022/05/24 03:21:26;;;;;;;;;;;;;;;;;;4974431;28;20484;-76
2022/05/24 03:23:52;;;;;;;;;;;;;;;;;;4974501;28;19929;-75
2022/05/24 03:26:18;;;;;;;;;;;;;;;;;;4974243;28;19926;-75
2022/05/24 03:28:46;;;;;;;;;;;;;;;;;;4973410;28;20385;-76
2022/05/24 03:31:12;;;;;;;;;;;;;;;;;;4973824;28;20020;-76
2022/05/24 03:33:38;;;;;;;;;;;;;;;;;;4973022;28;19968;-76
2022/05/24 03:36:04;;;;;;;;;;;;;;;;;;4973262;28;19922;-76
2022/05/24 03:38:30;;;;;;;;;;;;;;;;;;4973652;28;20008;-75
2022/05/24 03:40:56;;;;;;;;;;;;;;;;;;4973721;28;20013;-75
2022/05/24 03:43:22;;;;;;;;;;;;;;;;;;4974224;28;19922;-75
2022/05/24 03:45:48;;;;;;;;;;;;;;;;;;4973527;28;19922;-75
2022/05/24 03:48:14;;;;;;;;;;;;;;;;;;4956409;28;19922;-76
2022/05/24 03:50:40;;;;;;;;;;;;;;;;;;4973255;28;19925;-75
2022/05/24 03:53:06;;;;;;;;;;;;;;;;;;4973892;28;20008;-76
2022/05/24 03:55:32;;;;;;;;;;;;;;;;;;4973261;28;20325;-75
2022/05/24 03:58:02;;;;;;;;;;;;;;;;;;4973688;28;20277;-75
2022/05/24 04:00:28;;;;;;;;;;;;;;;;;;4973289;28;19922;-76
2022/05/24 04:02:54;;;;;;;;;;;;;;;;;;4972533;28;19969;-75
2022/05/24 04:05:19;;;;;;;;;;;;;;;;;;4973071;28;19993;-75
2022/05/24 04:07:45;;;;;;;;;;;;;;;;;;4956156;28;19922;-76
2022/05/24 04:10:12;;;;;;;;;;;;;;;;;;4973211;28;19929;-76
2022/05/24 04:12:38;;;;;;;;;;;;;;;;;;4973715;28;20013;-76
2022/05/24 04:15:03;;;;;;;;;;;;;;;;;;4956212;28;19972;-76
2022/05/24 04:17:29;;;;;;;;;;;;;;;;;;4973337;28;19922;-75
2022/05/24 04:19:55;;;;;;;;;;;;;;;;;;4973347;28;19922;-76
2022/05/24 04:22:21;;;;;;;;;;;;;;;;;;4973511;28;19974;-75
2022/05/24 04:24:47;;;;;;;;;;;;;;;;;;4956405;28;19926;-76
2022/05/24 04:27:13;;;;;;;;;;;;;;;;;;4973528;28;19969;-75
2022/05/24 04:29:39;;;;;;;;;;;;;;;;;;4973053;28;19928;-75
2022/05/24 04:32:06;;;;;;;;;;;;;;;;;;4974060;28;19969;-76
2022/05/24 04:34:32;;;;;;;;;;;;;;;;;;4972572;28;19918;-75
2022/05/24 04:36:58;;;;;;;;;;;;;;;;;;4973250;28;19985;-75
2022/05/24 04:39:24;;;;;;;;;;;;;;;;;;4973039;28;19926;-75
2022/05/24 04:44:34;;;;;;;;;;;;;;;;;;4973395;28;19932;-75
2022/05/24 04:47:10;;;;;;;;;;;;;;;;;;4956468;28;20009;-75
2022/05/24 04:49:36;;;;;;;;;;;;;;;;;;4955604;28;20436;-75
2022/05/24 04:52:02;;;;;;;;;;;;;;;;;;4972571;28;20004;-75
2022/05/24 04:54:28;;;;;;;;;;;;;;;;;;4972876;28;19922;-75
2022/05/24 04:56:54;;;;;;;;;;;;;;;;;;4973536;28;19976;-76
2022/05/24 04:59:20;;;;;;;;;;;;;;;;;;4972833;28;19921;-75
2022/05/24 05:01:46;;;;;;;;;;;;;;;;;;4973055;28;19922;-75
2022/05/24 05:04:12;;;;;;;;;;;;;;;;;;4972975;28;19996;-76
2022/05/24 05:06:38;;;;;;;;;;;;;;;;;;4972854;28;19922;-75
2022/05/24 05:09:03;;;;;;;;;;;;;;;;;;4958542;28;20373;-75
2022/05/24 05:11:29;;;;;;;;;;;;;;;;;;4975844;28;19922;-75
2022/05/24 05:13:55;;;;;;;;;;;;;;;;;;4976433;28;20407;-75
2022/05/24 05:16:21;;;;;;;;;;;;;;;;;;4975378;28;20361;-76
2022/05/24 05:18:47;;;;;;;;;;;;;;;;;;4976526;28;19926;-76
2022/05/24 05:21:13;;;;;;;;;;;;;;;;;;4973801;28;19944;-75
2022/05/24 05:23:39;;;;;;;;;;;;;;;;;;4943010;28;19922;-75
2022/05/24 05:26:05;;;;;;;;;;;;;;;;;;4975915;28;19922;-77
2022/05/24 05:28:31;;;;;;;;;;;;;;;;;;4975061;28;19929;-76
2022/05/24 05:33:42;;;;;;;;;;;;;;;;;;4974736;28;19972;-76
2022/05/24 05:36:08;;;;;;;;;;;;;;;;;;4958815;28;19922;-76
2022/05/24 05:38:34;;;;;;;;;;;;;;;;;;4959053;28;19922;-76
2022/05/24 05:41:00;;;;;;;;;;;;;;;;;;4958779;28;19922;-76
2022/05/24 05:43:26;;;;;;;;;;;;;;;;;;4958301;28;19976;-76
2022/05/24 05:45:52;;;;;;;;;;;;;;;;;;4975565;28;19999;-76
2022/05/24 05:48:18;;;;;;;;;;;;;;;;;;4975036;28;19926;-76
2022/05/24 05:50:46;;;;;;;;;;;;;;;;;;4975702;28;19976;-76
2022/05/24 05:53:12;;;;;;;;;;;;;;;;;;4976206;28;19922;-77
2022/05/24 05:55:38;;;;;;;;;;;;;;;;;;4974901;28;19922;-77
2022/05/24 05:58:04;;;;;;;;;;;;;;;;;;4975748;28;19975;-76
2022/05/24 06:00:30;;;;;;;;;;;;;;;;;;4958385;28;19936;-77
2022/05/24 06:02:56;;;;;;;;;;;;;;;;;;4958868;28;19922;-77
2022/05/24 06:05:22;;;;;;;;;;;;;;;;;;4975441;28;19922;-77
2022/05/24 06:07:48;;;;;;;;;;;;;;;;;;4974912;28;19922;-77
2022/05/24 06:10:14;;;;;;;;;;;;;;;;;;4974709;28;20293;-77
2022/05/24 06:12:40;;;;;;;;;;;;;;;;;;4975218;28;19980;-77
2022/05/24 06:15:06;;;;;;;;;;;;;;;;;;4974822;28;20383;-77
2022/05/24 06:17:32;;;;;;;;;;;;;;;;;;4974393;28;19944;-77
2022/05/24 06:19:59;;;;;;;;;;;;;;;;;;4974148;28;19922;-77
2022/05/24 06:22:25;;;;;;;;;;;;;;;;;;4974993;28;19947;-77
2022/05/24 06:24:51;;;;;;;;;;;;;;;;;;4974747;28;19929;-77
2022/05/24 06:27:16;;;;;;;;;;;;;;;;;;4958170;28;19930;-77
2022/05/24 06:29:42;;;;;;;;;;;;;;;;;;4974462;28;19929;-77
2022/05/24 06:32:08;;;;;;;;;;;;;;;;;;4957756;28;19922;-77
2022/05/24 06:34:34;;;;;;;;;;;;;;;;;;4974614;28;19973;-77
2022/05/24 06:37:00;;;;;;;;;;;;;;;;;;4975414;28;19921;-77
2022/05/24 06:39:27;;;;;;;;;;;;;;;;;;4974834;28;19922;-77
2022/05/24 06:41:53;;;;;;;;;;;;;;;;;;4974197;28;19929;-77
2022/05/24 06:44:19;;;;;;;;;;;;;;;;;;4974535;28;20297;-77
2022/05/24 06:46:45;;;;;;;;;;;;;;;;;;4957669;28;19922;-77
2022/05/24 06:49:11;;;;;;;;;;;;;;;;;;4974600;28;20028;-77
2022/05/24 06:51:37;;;;;;;;;;;;;;;;;;4973766;28;19932;-76
2022/05/24 06:54:03;;;;;;;;;;;;;;;;;;4972913;28;20398;-77
2022/05/24 06:56:29;;;;;;;;;;;;;;;;;;4972893;28;20012;-76
2022/05/24 07:02:25;;;;;;;;;;;;;;;;;;4973007;28;19929;-76
2022/05/24 07:04:26;;;;;;;;;;;;;;;;;;4957593;28;19929;-76
2022/05/24 07:06:51;;;;;;;;;;;;;;;;;;4957081;28;19922;-76
2022/05/24 07:09:17;;;;;;;;;;;;;;;;;;4974999;28;20045;-76
2022/05/24 07:11:43;;;;;;;;;;;;;;;;;;4957556;28;19922;-76
2022/05/24 07:14:09;;;;;;;;;;;;;;;;;;4958089;28;19945;-76
2022/05/24 07:16:35;;;;;;;;;;;;;;;;;;4957123;28;19922;-76
2022/05/24 07:19:01;;;;;;;;;;;;;;;;;;4973879;28;19929;-76
2022/05/24 07:21:27;;;;;;;;;;;;;;;;;;4974058;28;19933;-76
2022/05/24 07:23:53;;;;;;;;;;;;;;;;;;4973276;28;20013;-76
2022/05/24 07:26:21;;;;;;;;;;;;;;;;;;4972633;28;19976;-76
2022/05/24 07:28:47;;;;;;;;;;;;;;;;;;4955227;28;19953;-76
2022/05/24 07:31:12;;;;;;;;;;;;;;;;;;4972516;28;19929;-76
2022/05/24 07:33:38;;;;;;;;;;;;;;;;;;4972182;28;20320;-76
2022/05/24 07:36:04;;;;;;;;;;;;;;;;;;4972669;28;19925;-76
2022/05/24 07:38:30;;;;;;;;;;;;;;;;;;4955567;28;19922;-76
2022/05/24 07:46:25;;;;;;;;;;;;;;;;;;4972078;28;19929;-76
2022/05/24 07:48:51;;;;;;;;;;;;;;;;;;4970631;28;19922;-76
2022/05/24 07:51:17;;;;;;;;;;;;;;;;;;4971269;28;19973;-76
2022/05/24 07:53:43;;;;;;;;;;;;;;;;;;4971413;28;20376;-76
2022/05/24 07:56:09;;;;;;;;;;;;;;;;;;4971589;28;19922;-76
2022/05/24 07:58:35;;;;;;;;;;;;;;;;;;4972260;28;19922;-76
2022/05/24 08:01:01;;;;;;;;;;;;;;;;;;4971731;28;19918;-76
2022/05/24 08:03:27;;;;;;;;;;;;;;;;;;4971638;28;19973;-76
2022/05/24 08:05:53;;;;;;;;;;;;;;;;;;4971509;28;19955;-81
2022/05/24 08:08:19;;;;;;;;;;;;;;;;;;4955135;28;19928;-77
2022/05/24 08:10:45;;;;;;;;;;;;;;;;;;4972066;28;19922;-76
2022/05/24 08:13:11;;;;;;;;;;;;;;;;;;4955876;28;19926;-76
2022/05/24 08:15:37;;;;;;;;;;;;;;;;;;4970803;28;19932;-76
2022/05/24 08:18:03;;;;;;;;;;;;;;;;;;4954645;28;19925;-77
2022/05/24 08:20:31;;;;;;;;;;;;;;;;;;4972990;28;19922;-79
2022/05/24 08:22:57;;;;;;;;;;;;;;;;;;4955867;28;19929;-77
2022/05/24 08:25:24;;;;;;;;;;;;;;;;;;4973173;28;19922;-78
2022/05/24 08:27:50;;;;;;;;;;;;;;;;;;4956194;28;20266;-78
2022/05/24 08:30:16;;;;;;;;;;;;;;;;;;4971985;28;19929;-78
2022/05/24 08:32:42;;;;;;;;;;;;;;;;;;4956667;28;19961;-78
2022/05/24 08:35:08;;;;;;;;;;;;;;;;;;4955587;28;19929;-77
2022/05/24 08:37:35;;;;;;;;;;;;;;;;;;4954654;28;20354;-79
2022/05/24 08:40:01;;;;;;;;;;;;;;;;;;4956113;28;20281;-78
2022/05/24 08:42:27;;;;;;;;;;;;;;;;;;4958307;28;19930;-77
2022/05/24 08:50:22;;;;;;;;;;;;;;;;;;4960521;28;20369;-77
2022/05/24 08:52:48;;;;;;;;;;;;;;;;;;4977118;28;19922;-77
2022/05/24 08:55:14;;;;;;;;;;;;;;;;;;4977780;28;20329;-78
2022/05/24 08:57:42;;;;;;;;;;;;;;;;;;4959826;28;19926;-78
2022/05/24 09:00:10;;;;;;;;;;;;;;;;;;4959959;28;19968;-78
2022/05/24 09:02:36;;;;;;;;;;;;;;;;;;4960546;28;19922;-78
2022/05/24 09:05:02;;;;;;;;;;;;;;;;;;4976500;28;19993;-78
2022/05/24 09:07:28;;;;;;;;;;;;;;;;;;4977603;28;20340;-78
2022/05/24 09:09:54;;;;;;;;;;;;;;;;;;4977003;28;19922;-78
2022/05/24 09:12:20;;;;;;;;;;;;;;;;;;4977137;28;19929;-81
2022/05/24 09:14:46;;;;;;;;;;;;;;;;;;4960235;28;19929;-79
2022/05/24 09:17:12;;;;;;;;;;;;;;;;;;4976856;28;19922;-80
2022/05/24 09:19:38;;;;;;;;;;;;;;;;;;4977019;28;19926;-80
2022/05/24 09:22:04;;;;;;;;;;;;;;;;;;4959394;28;19922;-79
2022/05/24 09:24:31;;;;;;;;;;;;;;;;;;4977402;28;19922;-80
2022/05/24 09:26:57;;;;;;;;;;;;;;;;;;4959742;28;19948;-79
2022/05/24 09:29:23;;;;;;;;;;;;;;;;;;4959733;28;19922;-79
2022/05/24 09:31:49;;;;;;;;;;;;;;;;;;4960223;28;19922;-80
2022/05/24 09:34:15;;;;;;;;;;;;;;;;;;4976687;28;19922;-80
2022/05/24 09:36:41;;;;;;;;;;;;;;;;;;4977087;28;19949;-79
2022/05/24 09:39:07;;;;;;;;;;;;;;;;;;4976203;28;20040;-79
2022/05/24 09:41:33;;;;;;;;;;;;;;;;;;4976147;28;19977;-80
2022/05/24 09:43:59;;;;;;;;;;;;;;;;;;4976286;28;19922;-81
2022/05/24 09:46:25;;;;;;;;;;;;;;;;;;4959273;28;19976;-81
2022/05/24 09:48:51;;;;;;;;;;;;;;;;;;4959768;28;20289;-77
2022/05/24 09:51:17;;;;;;;;;;;;;;;;;;4958932;28;20285;-78
2022/05/24 09:53:43;;;;;;;;;;;;;;;;;;4959052;28;19922;-78
2022/05/24 09:56:08;;;;;;;;;;;;;;;;;;4975757;28;20025;-80
2022/05/24 09:58:34;;;;;;;;;;;;;;;;;;4959300;28;19922;-81
2022/05/24 10:01:01;;;;;;;;;;;;;;;;;;4959218;28;19949;-81
2022/05/24 10:03:26;;;;;;;;;;;;;;;;;;4959439;28;19922;-82
2022/05/24 10:05:52;;;;;;;;;;;;;;;;;;4959118;28;19922;-79
2022/05/24 10:08:19;;;;;;;;;;;;;;;;;;4975424;28;20416;-81
2022/05/24 10:10:45;;;;;;;;;;;;;;;;;;4976258;28;19922;-81
2022/05/24 10:13:11;;;;;;;;;;;;;;;;;;4958758;28;19922;-79
2022/05/24 10:15:37;;;;;;;;;;;;;;;;;;4976279;28;19925;-80
2022/05/24 10:18:03;;;;;;;;;;;;;;;;;;4975734;28;19922;-80
2022/05/24 10:20:29;;;;;;;;;;;;;;;;;;4975891;28;20405;-80
2022/05/24 10:22:55;;;;;;;;;;;;;;;;;;4943130;28;20246;-75
2022/05/24 10:25:21;;;;;;;;;;;;;;;;;;4975640;28;20281;-88
2022/05/24 10:27:47;;;;;;;;;;;;;;;;;;4943491;28;20379;-91
2022/05/24 10:30:13;;;;;;;;;;;;;;;;;;4959035;28;19945;-89
2022/05/24 10:38:18;;;;;;;;;;;;;;;;;;4958633;28;20400;-89
2022/05/24 10:40:44;;;;;;;;;;;;;;;;;;4942850;28;19922;-84
2022/05/24 10:43:09;;;;;;;;;;;;;;;;;;4958298;28;19976;-88
2022/05/24 10:45:51;;;;;;;;;;;;;;;;;;4943397;28;19948;-85
2022/05/24 10:48:17;;;;;;;;;;;;;;;;;;4942886;28;19972;-85
2022/05/24 10:50:43;;;;;;;;;;;;;;;;;;4957633;28;19977;-81
2022/05/24 10:53:09;;;;;;;;;;;;;;;;;;4958083;28;19937;-82
2022/05/24 10:55:36;;;;;;;;;;;;;;;;;;4942238;28;20320;-84
2022/05/24 10:58:02;;;;;;;;;;;;;;;;;;4941592;28;19922;-86
2022/05/24 11:00:28;;;;;;;;;;;;;;;;;;4941842;28;20060;-82
2022/05/24 11:02:54;;;;;;;;;;;;;;;;;;4942280;28;19922;-83
2022/05/24 11:05:20;;;;;;;;;;;;;;;;;;4957287;28;19922;-83
2022/05/24 11:07:46;;;;;;;;;;;;;;;;;;4957870;28;19921;-83
2022/05/24 11:10:12;;;;;;;;;;;;;;;;;;4941320;28;19977;-89
2022/05/24 11:12:38;;;;;;;;;;;;;;;;;;4957974;28;20017;-84
2022/05/24 11:15:04;;;;;;;;;;;;;;;;;;4942058;28;19922;-84
2022/05/24 11:17:30;;;;;;;;;;;;;;;;;;4957615;28;19961;-88
2022/05/24 11:19:56;;;;;;;;;;;;;;;;;;4958177;28;19922;-89
2022/05/24 11:22:24;;;;;;;;;;;;;;;;;;4957467;28;19922;-85
2022/05/24 11:24:50;;;;;;;;;;;;;;;;;;4942472;28;19929;-92
2022/05/24 11:27:16;;;;;;;;;;;;;;;;;;4941949;28;19926;-89
2022/05/24 11:29:42;;;;;;;;;;;;;;;;;;4958794;28;19929;-94
2022/05/24 11:32:08;;;;;;;;;;;;;;;;;;4941351;28;19968;-93
2022/05/24 11:34:34;;;;;;;;;;;;;;;;;;4957502;28;19926;-89
2022/05/24 11:37:00;;;;;;;;;;;;;;;;;;4958890;28;19929;-90
2022/05/24 11:39:26;;;;;;;;;;;;;;;;;;4958062;28;20600;-88
2022/05/24 11:41:52;;;;;;;;;;;;;;;;;;4942985;28;19926;-88
2022/05/24 11:44:18;;;;;;;;;;;;;;;;;;4940827;28;20017;-88
2022/05/24 11:46:46;;;;;;;;;;;;;;;;;;4942974;28;19929;-88
2022/05/24 11:49:12;;;;;;;;;;;;;;;;;;4943204;28;20008;-92
2022/05/24 11:51:39;;;;;;;;;;;;;;;;;;4940481;29;19923;-92
2022/05/24 11:54:05;;;;;;;;;;;;;;;;;;4940464;29;19977;-90
2022/05/24 11:56:31;;;;;;;;;;;;;;;;;;4938971;29;20374;-87
2022/05/24 11:58:57;;;;;;;;;;;;;;;;;;4953773;29;19926;-87
2022/05/24 12:01:23;;;;;;;;;;;;;;;;;;4954364;29;20003;-88
2022/05/24 12:09:18;;;;;;;;;;;;;;;;;;4953423;29;19969;-84
2022/05/24 12:11:44;;;;;;;;;;;;;;;;;;4937759;29;19974;-83
2022/05/24 12:14:10;;;;;;;;;;;;;;;;;;4953697;29;19973;-82
2022/05/24 12:16:36;;;;;;;;;;;;;;;;;;4955550;28;20017;-84
2022/05/24 12:19:03;;;;;;;;;;;;;;;;;;4941353;29;20436;-84
2022/05/24 12:21:29;;;;;;;;;;;;;;;;;;4941520;29;20453;-83
2022/05/24 12:23:55;;;;;;;;;;;;;;;;;;4957318;29;20009;-83
2022/05/24 12:26:20;;;;;;;;;;;;;;;;;;4957191;29;19929;-83
2022/05/24 12:28:49;;;;;;;;;;;;;;;;;;4957709;29;19922;-84
2022/05/24 12:31:15;;;;;;;;;;;;;;;;;;4941541;29;20016;-82
2022/05/24 12:33:41;;;;;;;;;;;;;;;;;;4957875;29;19929;-84
2022/05/24 12:36:07;;;;;;;;;;;;;;;;;;4957413;29;19926;-88
2022/05/24 12:38:33;;;;;;;;;;;;;;;;;;4957639;29;19922;-87
2022/05/24 12:40:59;;;;;;;;;;;;;;;;;;4958827;29;19965;-86
2022/05/24 12:43:25;;;;;;;;;;;;;;;;;;4942817;29;19922;-83
2022/05/24 12:45:51;;;;;;;;;;;;;;;;;;4957278;29;19957;-88
2022/05/24 12:48:17;;;;;;;;;;;;;;;;;;4957138;29;19944;-84
2022/05/24 12:50:43;;;;;;;;;;;;;;;;;;4958258;29;20369;-86
2022/05/24 12:53:09;;;;;;;;;;;;;;;;;;4945068;28;20313;-85
2022/05/24 12:58:19;;;;;;;;;;;;;;;;;;4960003;28;20337;-84
2022/05/24 13:00:45;;;;;;;;;;;;;;;;;;4944785;28;19922;-85
2022/05/24 13:03:11;;;;;;;;;;;;;;;;;;4944545;28;19972;-83
2022/05/24 13:05:38;;;;;;;;;;;;;;;;;;4944049;28;19933;-84
2022/05/24 13:08:03;;;;;;;;;;;;;;;;;;4943798;28;19922;-83
2022/05/24 13:10:30;;;;;;;;;;;;;;;;;;4960338;28;19928;-86
2022/05/24 13:12:56;;;;;;;;;;;;;;;;;;4947468;28;20357;-87
2022/05/24 13:15:22;;;;;;;;;;;;;;;;;;4961900;28;19925;-87
2022/05/24 13:17:48;;;;;;;;;;;;;;;;;;4960215;28;20289;-86
2022/05/24 13:20:14;;;;;;;;;;;;;;;;;;4944864;28;19922;-88
2022/05/24 13:22:40;;;;;;;;;;;;;;;;;;4945111;28;19918;-88
2022/05/24 13:25:06;;;;;;;;;;;;;;;;;;4962167;28;19929;-88
2022/05/24 13:27:31;;;;;;;;;;;;;;;;;;4944732;28;19931;-88
2022/05/24 13:35:27;;;;;;;;;;;;;;;;;;4959704;28;19932;-86
2022/05/24 13:37:53;;;;;;;;;;;;;;;;;;4960449;28;19922;-84
2022/05/24 13:40:20;;;;;;;;;;;;;;;;;;4961378;28;19921;-84
2022/05/24 13:42:46;;;;;;;;;;;;;;;;;;4942409;28;19929;-88
2022/05/24 13:45:13;;;;;;;;;;;;;;;;;;4964673;28;19922;-88
2022/05/24 13:47:39;;;;;;;;;;;;;;;;;;4948934;28;19926;-87
2022/05/24 13:50:05;;;;;;;;;;;;;;;;;;4962279;28;20370;-89
2022/05/24 13:52:31;;;;;;;;;;;;;;;;;;4947664;28;19929;-90
2022/05/24 13:54:57;;;;;;;;;;;;;;;;;;4965072;28;20139;-88
2022/05/24 13:57:23;;;;;;;;;;;;;;;;;;4969091;28;19922;-92
2022/05/24 13:59:49;;;;;;;;;;;;;;;;;;4964241;28;19929;-92
2022/05/24 14:02:15;;;;;;;;;;;;;;;;;;4944308;28;20381;-87
2022/05/24 14:04:41;;;;;;;;;;;;;;;;;;4959726;28;19926;-89
2022/05/24 14:07:07;;;;;;;;;;;;;;;;;;4959644;28;19980;-87
2022/05/24 14:09:34;;;;;;;;;;;;;;;;;;4960369;28;19922;-82
2022/05/24 14:11:59;;;;;;;;;;;;;;;;;;4943014;28;20430;-84
2022/05/24 14:14:25;;;;;;;;;;;;;;;;;;4958555;28;19922;-84
2022/05/24 14:16:52;;;;;;;;;;;;;;;;;;4958390;28;19972;-85
2022/05/24 14:19:18;;;;;;;;;;;;;;;;;;4943364;28;19926;-86
2022/05/24 14:21:44;;;;;;;;;;;;;;;;;;4958490;28;19929;-86
2022/05/24 14:24:12;;;;;;;;;;;;;;;;;;4959250;28;19938;-85
2022/05/24 14:26:38;;;;;;;;;;;;;;;;;;4958485;28;19969;-86
2022/05/24 14:29:04;;;;;;;;;;;;;;;;;;4943207;28;20286;-87
2022/05/24 14:31:30;;;;;;;;;;;;;;;;;;4958213;28;19926;-84
2022/05/24 14:33:56;;;;;;;;;;;;;;;;;;4942677;28;19929;-86
2022/05/24 14:36:22;;;;;;;;;;;;;;;;;;4958609;28;19925;-86
2022/05/24 14:38:48;;;;;;;;;;;;;;;;;;4941981;28;19936;-86
2022/05/24 14:41:17;;;;;;;;;;;;;;;;;;4958256;28;20089;-85
2022/05/24 14:43:44;;;;;;;;;;;;;;;;;;4941494;28;19976;-85
2022/05/24 14:46:10;;;;;;;;;;;;;;;;;;4942517;28;19922;-86
2022/05/24 14:48:37;;;;;;;;;;;;;;;;;;4958119;28;19964;-86
2022/05/24 14:51:04;;;;;;;;;;;;;;;;;;4957901;28;19947;-86
2022/05/24 14:53:32;;;;;;;;;;;;;;;;;;4958747;28;19969;-86
2022/05/24 14:55:58;;;;;;;;;;;;;;;;;;4957464;28;19929;-86
2022/05/24 14:58:24;;;;;;;;;;;;;;;;;;4957547;28;19922;-92
2022/05/24 15:00:50;;;;;;;;;;;;;;;;;;4958129;28;19922;-87
2022/05/24 15:03:16;;;;;;;;;;;;;;;;;;4942414;28;20056;-95
2022/05/24 15:05:42;;;;;;;;;;;;;;;;;;4963556;28;19922;-92
2022/05/24 15:16:30;;;;;;;;;;;;;;;;;;4957587;28;19949;-88
2022/05/24 15:18:56;;;;;;;;;;;;;;;;;;4942105;28;19965;-90
2022/05/24 15:21:23;;;;;;;;;;;;;;;;;;4942602;28;20409;-94
2022/05/24 15:23:52;;;;;;;;;;;;;;;;;;4958148;28;20380;-92
2022/05/24 15:26:18;;;;;;;;;;;;;;;;;;4959554;28;20008;-92
2022/05/24 15:28:44;;;;;;;;;;;;;;;;;;4941680;28;19921;-89
2022/05/24 15:31:10;;;;;;;;;;;;;;;;;;4941829;28;19926;-92
2022/05/24 15:33:36;;;;;;;;;;;;;;;;;;4941648;28;19928;-87
2022/05/24 15:36:03;;;;;;;;;;;;;;;;;;4942969;28;20000;-94
2022/05/24 15:38:29;;;;;;;;;;;;;;;;;;4942687;28;19973;-89
2022/05/24 15:40:55;;;;;;;;;;;;;;;;;;4957665;28;20008;-88
2022/05/24 15:43:21;;;;;;;;;;;;;;;;;;4941662;28;19969;-87
2022/05/24 15:45:48;;;;;;;;;;;;;;;;;;4957033;28;19921;-87
2022/05/24 15:48:14;;;;;;;;;;;;;;;;;;4942224;28;19929;-90
2022/05/24 15:50:40;;;;;;;;;;;;;;;;;;4941662;28;19926;-86
2022/05/24 15:53:08;;;;;;;;;;;;;;;;;;4958060;28;19930;-90
2022/05/24 15:55:33;;;;;;;;;;;;;;;;;;4941726;28;20008;-81
2022/05/24 15:57:59;;;;;;;;;;;;;;;;;;4958797;28;20396;-93
2022/05/24 16:00:25;;;;;;;;;;;;;;;;;;4958825;28;20250;-94
2022/05/24 16:02:51;;;;;;;;;;;;;;;;;;4944277;28;20277;-94
2022/05/24 16:10:47;;;;;;;;;;;;;;;;;;4958498;28;19929;-91
2022/05/24 16:13:13;;;;;;;;;;;;;;;;;;4943211;28;20353;-96
2022/05/24 16:15:39;;;;;;;;;;;;;;;;;;4957459;28;20269;-86
2022/05/24 16:18:05;;;;;;;;;;;;;;;;;;4940861;28;20012;-87
2022/05/24 16:20:31;;;;;;;;;;;;;;;;;;4958195;28;20408;-88
2022/05/24 16:22:57;;;;;;;;;;;;;;;;;;4957989;28;19926;-88
2022/05/24 16:25:23;;;;;;;;;;;;;;;;;;4959327;28;19929;-90
2022/05/24 16:27:49;;;;;;;;;;;;;;;;;;4958881;28;19925;-90
2022/05/24 16:30:16;;;;;;;;;;;;;;;;;;4958514;28;20389;-91
2022/05/24 16:32:42;;;;;;;;;;;;;;;;;;4959330;28;19976;-90
2022/05/24 16:35:08;;;;;;;;;;;;;;;;;;4958388;28;19926;-86
2022/05/24 16:37:34;;;;;;;;;;;;;;;;;;4941827;28;19925;-87
2022/05/24 16:40:00;;;;;;;;;;;;;;;;;;4956335;28;20440;-83
2022/05/24 16:42:26;;;;;;;;;;;;;;;;;;4940843;28;19926;-82
2022/05/24 16:44:52;;;;;;;;;;;;;;;;;;4939987;28;20017;-84
2022/05/24 16:47:18;;;;;;;;;;;;;;;;;;4956939;28;19926;-86
2022/05/24 16:49:44;;;;;;;;;;;;;;;;;;4957872;28;19929;-90
2022/05/24 16:52:12;;;;;;;;;;;;;;;;;;4941143;28;19922;-90
2022/05/24 17:00:10;;;;;;;;;;;;;;;;;;4957590;28;19932;-88
2022/05/24 17:02:36;;;;;;;;;;;;;;;;;;4942101;28;19922;-90
2022/05/24 17:05:02;;;;;;;;;;;;;;;;;;4960997;28;19922;-88
2022/05/24 17:07:28;;;;;;;;;;;;;;;;;;4945715;28;19922;-89
2022/05/24 17:09:54;;;;;;;;;;;;;;;;;;4961523;28;19922;-94
2022/05/24 17:12:20;;;;;;;;;;;;;;;;;;4944934;28;20016;-91
2022/05/24 17:14:46;;;;;;;;;;;;;;;;;;4963280;28;19922;-86
2022/05/24 17:17:12;;;;;;;;;;;;;;;;;;4947624;28;19929;-90
2022/05/24 17:19:38;;;;;;;;;;;;;;;;;;4947812;28;19973;-89
2022/05/24 17:22:04;;;;;;;;;;;;;;;;;;4948240;28;19922;-88
2022/05/24 17:24:30;;;;;;;;;;;;;;;;;;4968059;28;20432;-91
2022/05/24 17:26:56;;;;;;;;;;;;;;;;;;4950598;28;19977;-90
2022/05/24 17:29:22;;;;;;;;;;;;;;;;;;4953717;28;19997;-89
2022/05/24 17:31:49;;;;;;;;;;;;;;;;;;4947219;28;19925;-87
2022/05/24 17:34:15;;;;;;;;;;;;;;;;;;4946460;28;19922;-87
2022/05/24 17:36:41;;;;;;;;;;;;;;;;;;4948607;28;19929;-87
2022/05/24 17:39:08;;;;;;;;;;;;;;;;;;4944442;28;20384;-88
2022/05/24 17:41:34;;;;;;;;;;;;;;;;;;4946268;28;19922;-89
2022/05/24 17:43:59;;;;;;;;;;;;;;;;;;4963335;28;19929;-91